Time;durP1;ratioP1;P1;durP2;ratioP2;P2;SDS_P1;SDS_P2;PMS_P1;PMS_P2;Temp;Humidity;BMP_temperature;BMP_pressure;BME280_temperature;BME280_humidity;BME280_pressure;Samples;Min_cycle;Max_cycle;Signal;HPM_P1;HPM_P2
2022/08/03 00:00:47;;;;;;;8.30;1.90;;;;;;;;;;5008813;28;20038;-74
2022/08/03 00:03:13;;;;;;;7.45;2.08;;;;;;;;;;5009037;28;20050;-75
2022/08/03 00:05:39;;;;;;;5.68;2.22;;;;;;;;;;5010810;28;20054;-74
2022/08/03 00:08:05;;;;;;;7.60;1.95;;;;;;;;;;5009313;28;20966;-74
2022/08/03 00:10:30;;;;;;;5.75;1.80;;;;;;;;;;5008612;28;20662;-76
2022/08/03 00:12:56;;;;;;;5.53;1.80;;;;;;;;;;5013247;28;20476;-75
2022/08/03 00:15:22;;;;;;;8.57;2.00;;;;;;;;;;5014497;28;20301;-73
2022/08/03 00:17:48;;;;;;;9.10;2.03;;;;;;;;;;5007018;28;20064;-74
2022/08/03 00:20:14;;;;;;;7.25;2.28;;;;;;;;;;4998356;28;20057;-73
2022/08/03 00:22:40;;;;;;;8.70;2.33;;;;;;;;;;5007099;28;20046;-75
2022/08/03 00:25:06;;;;;;;5.82;2.00;;;;;;;;;;5007275;28;20045;-77
2022/08/03 00:27:32;;;;;;;8.73;2.10;;;;;;;;;;5008228;28;20087;-75
2022/08/03 00:29:58;;;;;;;10.27;2.25;;;;;;;;;;5010596;28;20049;-73
2022/08/03 00:32:24;;;;;;;7.07;2.28;;;;;;;;;;5012087;28;20054;-75
2022/08/03 00:34:50;;;;;;;5.20;2.00;;;;;;;;;;5008046;28;20139;-74
2022/08/03 00:37:16;;;;;;;3.85;2.05;;;;;;;;;;5007230;28;20081;-75
2022/08/03 00:39:44;;;;;;;4.75;2.00;;;;;;;;;;5008315;28;20042;-74
2022/08/03 00:42:10;;;;;;;6.05;2.10;;;;;;;;;;5009108;28;20223;-74
2022/08/03 00:44:41;;;;;;;3.70;1.80;;;;;;;;;;5008873;28;20427;-73
2022/08/03 00:47:09;;;;;;;5.70;2.22;;;;;;;;;;4997437;28;20048;-74
2022/08/03 00:49:36;;;;;;;5.43;2.15;;;;;;;;;;5013381;28;20084;-72
2022/08/03 00:52:02;;;;;;;5.20;2.33;;;;;;;;;;5008085;28;20054;-73
2022/08/03 00:54:29;;;;;;;9.82;2.20;;;;;;;;;;5008469;28;20496;-74
2022/08/03 00:56:55;;;;;;;5.47;2.53;;;;;;;;;;5007885;28;20083;-73
2022/08/03 00:59:21;;;;;;;5.18;2.20;;;;;;;;;;5008381;28;20042;-74
2022/08/03 01:01:47;;;;;;;8.63;2.20;;;;;;;;;;5008793;28;20560;-75
2022/08/03 01:04:13;;;;;;;6.65;2.10;;;;;;;;;;5009863;28;20049;-73
2022/08/03 01:06:51;;;;;;;9.85;2.08;;;;;;;;;;5011366;28;20053;-73
2022/08/03 01:09:20;;;;;;;5.32;2.38;;;;;;;;;;5002902;28;20133;-73
2022/08/03 01:11:57;;;;;;;4.10;2.35;;;;;;;;;;5011979;28;20053;-74
2022/08/03 01:15:06;;;;;;;13.55;2.45;;;;;;;;;;5011453;28;20049;-75
2022/08/03 01:17:44;;;;;;;9.80;2.70;;;;;;;;;;5010231;28;20041;-72
2022/08/03 01:20:13;;;;;;;6.38;2.47;;;;;;;;;;5010799;28;20050;-73
2022/08/03 01:23:17;;;;;;;8.50;2.78;;;;;;;;;;5012018;28;20305;-72
2022/08/03 01:26:10;;;;;;;5.75;2.30;;;;;;;;;;5010131;28;20109;-74
2022/08/03 01:28:57;;;;;;;9.93;2.45;;;;;;;;;;5011738;28;20124;-74
2022/08/03 01:31:50;;;;;;;5.05;2.53;;;;;;;;;;5010395;28;20552;-75
2022/08/03 01:34:19;;;;;;;6.53;2.40;;;;;;;;;;5012397;28;20042;-74
2022/08/03 01:36:52;;;;;;;4.82;2.53;;;;;;;;;;5001567;28;20081;-74
2022/08/03 01:39:20;;;;;;;4.38;2.47;;;;;;;;;;5005252;28;20061;-73
2022/08/03 01:41:58;;;;;;;7.30;2.33;;;;;;;;;;5002441;28;20144;-73
2022/08/03 01:44:29;;;;;;;5.25;2.10;;;;;;;;;;5002366;28;20515;-74
2022/08/03 01:46:58;;;;;;;5.15;2.15;;;;;;;;;;5000825;28;20053;-71
2022/08/03 01:49:25;;;;;;;6.05;2.50;;;;;;;;;;5002234;28;20980;-74
2022/08/03 01:51:52;;;;;;;4.30;2.13;;;;;;;;;;5005230;28;20064;-71
2022/08/03 01:54:20;;;;;;;7.10;2.47;;;;;;;;;;5005424;28;20395;-75
2022/08/03 01:56:50;;;;;;;10.68;2.90;;;;;;;;;;5004151;28;20529;-73
2022/08/03 01:59:19;;;;;;;3.78;2.25;;;;;;;;;;5002451;28;20302;-73
2022/08/03 02:01:47;;;;;;;7.35;2.55;;;;;;;;;;5002288;28;20058;-72
2022/08/03 02:04:16;;;;;;;6.32;2.40;;;;;;;;;;5002171;28;20052;-72
2022/08/03 02:06:44;;;;;;;7.88;2.42;;;;;;;;;;5000608;28;20046;-73
2022/08/03 02:09:12;;;;;;;8.38;2.38;;;;;;;;;;5003004;28;20325;-73
2022/08/03 02:11:39;;;;;;;8.15;2.38;;;;;;;;;;5003015;28;20161;-72
2022/08/03 02:14:05;;;;;;;8.40;2.38;;;;;;;;;;5001797;28;20053;-74
2022/08/03 02:16:33;;;;;;;8.93;2.35;;;;;;;;;;5000907;28;20049;-73
2022/08/03 02:19:02;;;;;;;5.75;2.15;;;;;;;;;;5000834;28;20077;-71
2022/08/03 02:21:34;;;;;;;9.30;2.40;;;;;;;;;;5001903;28;20077;-73
2022/08/03 02:24:00;;;;;;;7.00;2.42;;;;;;;;;;5002284;28;20081;-75
2022/08/03 02:26:30;;;;;;;6.65;2.40;;;;;;;;;;5001642;28;20081;-73
2022/08/03 02:29:00;;;;;;;6.95;2.35;;;;;;;;;;5000184;28;20431;-71
2022/08/03 02:31:29;;;;;;;4.50;2.40;;;;;;;;;;5002378;28;20061;-76
2022/08/03 02:34:01;;;;;;;6.88;2.55;;;;;;;;;;5003003;28;20088;-75
2022/08/03 02:36:30;;;;;;;8.30;2.88;;;;;;;;;;5003024;28;20076;-75
2022/08/03 02:38:59;;;;;;;9.05;2.33;;;;;;;;;;5003193;28;20214;-74
2022/08/03 02:41:36;;;;;;;7.50;2.78;;;;;;;;;;5006578;28;20058;-74
2022/08/03 02:44:07;;;;;;;8.23;2.92;;;;;;;;;;5004102;28;20088;-71
2022/08/03 02:46:37;;;;;;;7.22;2.58;;;;;;;;;;5005160;28;20045;-74
2022/08/03 02:49:04;;;;;;;9.00;2.83;;;;;;;;;;4999911;28;20311;-72
2022/08/03 02:51:32;;;;;;;6.15;2.60;;;;;;;;;;5001058;28;20439;-73
2022/08/03 02:54:01;;;;;;;11.40;2.88;;;;;;;;;;5003092;28;20514;-73
2022/08/03 02:56:28;;;;;;;10.90;2.58;;;;;;;;;;5000940;28;20184;-72
2022/08/03 02:58:56;;;;;;;9.88;2.78;;;;;;;;;;5000226;28;20105;-72
2022/08/03 03:01:24;;;;;;;6.05;2.72;;;;;;;;;;5000591;28;20054;-73
2022/08/03 03:03:52;;;;;;;7.00;2.53;;;;;;;;;;5001563;28;20050;-73
2022/08/03 03:06:18;;;;;;;7.00;2.50;;;;;;;;;;5000075;28;20072;-72
2022/08/03 03:08:45;;;;;;;10.32;2.70;;;;;;;;;;5000074;28;20050;-73
2022/08/03 03:11:13;;;;;;;6.88;2.70;;;;;;;;;;5001809;28;20382;-74
2022/08/03 03:13:42;;;;;;;7.95;2.50;;;;;;;;;;5002168;28;20042;-73
2022/08/03 03:16:08;;;;;;;5.72;2.88;;;;;;;;;;5002895;28;20046;-72
2022/08/03 03:18:36;;;;;;;5.45;2.33;;;;;;;;;;5005393;28;20503;-73
2022/08/03 03:21:03;;;;;;;8.93;2.80;;;;;;;;;;4994130;28;20050;-72
2022/08/03 03:23:30;;;;;;;6.35;2.67;;;;;;;;;;5001167;28;20046;-73
2022/08/03 03:25:57;;;;;;;7.95;2.50;;;;;;;;;;5001102;28;20489;-74
2022/08/03 03:28:24;;;;;;;6.38;2.85;;;;;;;;;;4999370;28;20053;-73
2022/08/03 03:30:51;;;;;;;6.45;2.95;;;;;;;;;;5001761;28;20118;-74
2022/08/03 03:33:17;;;;;;;6.28;2.78;;;;;;;;;;5003309;28;20085;-73
2022/08/03 03:35:45;;;;;;;5.68;2.50;;;;;;;;;;5000761;28;20058;-74
2022/08/03 03:38:11;;;;;;;6.82;2.70;;;;;;;;;;4990487;28;20503;-74
2022/08/03 03:40:38;;;;;;;8.27;2.53;;;;;;;;;;5005691;28;20270;-73
2022/08/03 03:43:08;;;;;;;5.45;2.25;;;;;;;;;;5007759;28;20046;-72
2022/08/03 03:45:34;;;;;;;9.23;2.70;;;;;;;;;;5010226;28;20061;-74
2022/08/03 03:48:03;;;;;;;7.35;2.42;;;;;;;;;;5010353;28;20060;-75
2022/08/03 03:50:31;;;;;;;7.55;2.80;;;;;;;;;;5007228;28;20506;-74
2022/08/03 03:52:57;;;;;;;6.65;2.80;;;;;;;;;;5006778;28;20050;-75
2022/08/03 03:55:23;;;;;;;8.10;2.78;;;;;;;;;;5018315;28;20050;-74
2022/08/03 03:57:49;;;;;;;6.75;2.50;;;;;;;;;;5006388;28;20404;-74
2022/08/03 04:00:16;;;;;;;8.60;2.83;;;;;;;;;;5007015;28;20050;-74
2022/08/03 04:02:43;;;;;;;7.75;2.70;;;;;;;;;;5006900;28;20117;-72
2022/08/03 04:11:09;;;;;;;5.63;2.90;;;;;;;;;;5008456;28;20492;-74
2022/08/03 04:13:55;;;;;;;10.82;2.95;;;;;;;;;;5013559;28;20058;-73
2022/08/03 04:16:26;;;;;;;7.30;2.65;;;;;;;;;;5006769;28;20053;-73
2022/08/03 04:18:59;;;;;;;8.88;3.15;;;;;;;;;;5006524;28;20046;-75
2022/08/03 04:21:27;;;;;;;11.10;3.08;;;;;;;;;;5004846;28;20105;-73
2022/08/03 04:23:59;;;;;;;8.45;3.20;;;;;;;;;;5006480;28;20057;-76
2022/08/03 04:26:28;;;;;;;7.63;2.97;;;;;;;;;;5006256;28;20405;-73
2022/08/03 04:28:55;;;;;;;10.63;2.75;;;;;;;;;;5015173;28;20072;-74
2022/08/03 04:31:22;;;;;;;6.28;2.60;;;;;;;;;;5006172;28;20062;-73
2022/08/03 04:33:50;;;;;;;11.38;3.00;;;;;;;;;;5005860;28;20505;-72
2022/08/03 04:36:20;;;;;;;7.68;2.88;;;;;;;;;;5006168;28;20060;-73
2022/08/03 04:38:58;;;;;;;9.27;2.88;;;;;;;;;;5006702;28;20050;-73
2022/08/03 04:41:25;;;;;;;8.15;2.95;;;;;;;;;;5005606;28;20105;-73
2022/08/03 04:43:54;;;;;;;5.30;2.78;;;;;;;;;;5010006;28;20046;-73
2022/08/03 04:46:23;;;;;;;5.50;2.70;;;;;;;;;;5015432;28;20042;-75
2022/08/03 04:48:50;;;;;;;10.55;2.90;;;;;;;;;;4995310;28;20047;-74
2022/08/03 04:51:16;;;;;;;9.60;2.92;;;;;;;;;;5008378;28;20049;-74
2022/08/03 04:53:42;;;;;;;8.02;3.00;;;;;;;;;;5006898;28;20503;-74
2022/08/03 04:56:08;;;;;;;12.13;3.33;;;;;;;;;;5007880;28;20050;-73
2022/08/03 04:58:35;;;;;;;9.48;3.30;;;;;;;;;;5007100;28;20458;-73
2022/08/03 05:01:01;;;;;;;6.47;3.13;;;;;;;;;;5005650;28;20514;-75
2022/08/03 05:03:27;;;;;;;11.77;2.90;;;;;;;;;;5006596;28;20050;-72
2022/08/03 05:05:54;;;;;;;8.50;2.80;;;;;;;;;;5006423;28;20103;-74
2022/08/03 05:08:20;;;;;;;13.65;3.13;;;;;;;;;;5001014;28;20042;-72
2022/08/03 05:10:46;;;;;;;7.63;2.97;;;;;;;;;;5009129;28;20096;-72
2022/08/03 05:13:13;;;;;;;6.78;2.67;;;;;;;;;;5008557;28;20532;-74
2022/08/03 05:15:39;;;;;;;8.43;3.20;;;;;;;;;;5007349;28;20050;-73
2022/08/03 05:18:05;;;;;;;6.43;2.80;;;;;;;;;;5006498;28;20076;-72
2022/08/03 05:20:31;;;;;;;16.63;3.50;;;;;;;;;;5006086;28;20484;-73
2022/08/03 05:23:00;;;;;;;5.82;2.50;;;;;;;;;;5007133;28;20042;-74
2022/08/03 05:25:26;;;;;;;9.40;2.70;;;;;;;;;;5006732;28;20038;-72
2022/08/03 05:27:52;;;;;;;5.97;2.75;;;;;;;;;;5006434;28;20042;-73
2022/08/03 05:30:19;;;;;;;10.00;2.85;;;;;;;;;;5007031;28;20045;-75
2022/08/03 05:32:45;;;;;;;13.05;2.97;;;;;;;;;;5009987;28;20046;-74
2022/08/03 05:35:10;;;;;;;9.70;2.78;;;;;;;;;;5007385;28;20099;-73
2022/08/03 05:37:36;;;;;;;8.60;2.88;;;;;;;;;;5007571;28;20078;-73
2022/08/03 05:40:03;;;;;;;14.02;2.67;;;;;;;;;;5007411;28;20236;-72
2022/08/03 05:42:29;;;;;;;11.13;2.72;;;;;;;;;;5007025;28;20050;-76
2022/08/03 05:44:55;;;;;;;8.95;3.03;;;;;;;;;;5006227;28;20388;-73
2022/08/03 05:47:21;;;;;;;6.65;2.80;;;;;;;;;;5004750;28;20388;-72
2022/08/03 05:49:46;;;;;;;9.35;2.95;;;;;;;;;;5006112;28;20072;-74
2022/08/03 05:52:12;;;;;;;8.52;2.67;;;;;;;;;;5008221;28;20050;-75
2022/08/03 05:54:38;;;;;;;11.43;3.20;;;;;;;;;;5013969;28;20478;-74
2022/08/03 05:57:04;;;;;;;15.30;3.47;;;;;;;;;;5007556;28;20137;-73
2022/08/03 05:59:30;;;;;;;12.13;2.92;;;;;;;;;;5000519;28;20046;-74
2022/08/03 06:01:56;;;;;;;11.02;2.88;;;;;;;;;;5012283;28;20070;-74
2022/08/03 06:04:22;;;;;;;10.20;2.92;;;;;;;;;;5013166;28;20189;-74
2022/08/03 06:06:49;;;;;;;10.38;2.72;;;;;;;;;;5009524;28;20042;-73
2022/08/03 06:09:16;;;;;;;11.38;2.90;;;;;;;;;;5009117;28;20107;-74
2022/08/03 06:11:42;;;;;;;7.40;3.25;;;;;;;;;;5012942;28;20069;-74
2022/08/03 06:14:08;;;;;;;14.25;3.33;;;;;;;;;;5009094;28;20679;-74
2022/08/03 06:16:34;;;;;;;8.65;3.25;;;;;;;;;;5009392;28;20046;-73
2022/08/03 06:19:00;;;;;;;6.32;2.92;;;;;;;;;;5009555;28;20049;-74
2022/08/03 06:21:26;;;;;;;14.50;2.92;;;;;;;;;;5009344;28;20046;-76
2022/08/03 06:23:52;;;;;;;13.10;3.28;;;;;;;;;;5009575;28;20084;-73
2022/08/03 06:26:18;;;;;;;11.23;2.92;;;;;;;;;;5009180;28;20129;-72
2022/08/03 06:28:45;;;;;;;13.85;3.17;;;;;;;;;;5014153;28;20053;-74
2022/08/03 06:31:11;;;;;;;10.65;3.00;;;;;;;;;;5009232;28;20045;-73
2022/08/03 06:33:37;;;;;;;10.40;3.05;;;;;;;;;;5009873;28;20488;-72
2022/08/03 06:36:03;;;;;;;11.00;3.03;;;;;;;;;;5009523;28;20062;-74
2022/08/03 06:38:29;;;;;;;10.05;3.15;;;;;;;;;;5009759;28;20054;-74
2022/08/03 06:40:54;;;;;;;14.80;3.55;;;;;;;;;;4998262;28;20092;-74
2022/08/03 06:43:21;;;;;;;13.23;4.28;;;;;;;;;;5005619;28;20049;-75
2022/08/03 06:45:47;;;;;;;12.63;3.00;;;;;;;;;;5005376;28;20132;-75
2022/08/03 06:48:13;;;;;;;8.18;3.00;;;;;;;;;;5005629;28;20140;-76
2022/08/03 06:50:40;;;;;;;11.82;2.97;;;;;;;;;;5004304;28;21025;-75
2022/08/03 06:53:07;;;;;;;11.45;3.42;;;;;;;;;;5005160;28;20103;-74
2022/08/03 06:55:33;;;;;;;14.68;3.10;;;;;;;;;;5004662;28;20037;-77
2022/08/03 06:57:59;;;;;;;19.13;3.67;;;;;;;;;;5008828;28;20168;-73
2022/08/03 07:00:26;;;;;;;12.18;3.33;;;;;;;;;;5008710;28;20573;-73
2022/08/03 07:02:53;;;;;;;12.18;3.03;;;;;;;;;;5007945;28;20042;-75
2022/08/03 07:05:19;;;;;;;10.52;3.35;;;;;;;;;;5007274;28;20061;-75
2022/08/03 07:07:45;;;;;;;13.95;3.00;;;;;;;;;;5004167;28;20047;-76
2022/08/03 07:10:11;;;;;;;12.73;2.78;;;;;;;;;;5002449;28;20096;-79
2022/08/03 07:12:38;;;;;;;8.70;2.50;;;;;;;;;;5008854;28;20042;-74
2022/08/03 07:15:05;;;;;;;12.85;2.65;;;;;;;;;;5006742;28;20045;-74
2022/08/03 07:17:33;;;;;;;14.50;2.95;;;;;;;;;;5007720;28;20092;-74
2022/08/03 07:20:00;;;;;;;9.88;2.80;;;;;;;;;;5016106;28;20042;-75
2022/08/03 07:22:27;;;;;;;11.68;2.67;;;;;;;;;;5007452;28;20053;-74
2022/08/03 07:24:52;;;;;;;9.82;2.80;;;;;;;;;;5008733;28;20069;-74
2022/08/03 07:27:18;;;;;;;7.97;3.00;;;;;;;;;;5008392;28;20475;-74
2022/08/03 07:29:44;;;;;;;9.60;2.80;;;;;;;;;;5011385;28;20042;-74
2022/08/03 07:32:10;;;;;;;13.50;3.15;;;;;;;;;;5010763;28;20072;-75
2022/08/03 07:34:36;;;;;;;10.85;3.00;;;;;;;;;;5012379;28;20092;-75
2022/08/03 07:37:02;;;;;;;12.13;3.00;;;;;;;;;;5008660;28;20053;-74
2022/08/03 07:39:28;;;;;;;11.90;2.90;;;;;;;;;;5007620;28;20042;-74
2022/08/03 07:41:54;;;;;;;9.70;2.78;;;;;;;;;;5007950;28;20128;-73
2022/08/03 07:44:20;;;;;;;19.33;3.00;;;;;;;;;;5007366;28;20069;-71
2022/08/03 07:46:46;;;;;;;12.63;2.92;;;;;;;;;;5007125;28;20480;-73
2022/08/03 07:49:12;;;;;;;14.45;2.75;;;;;;;;;;5007367;28;20346;-72
2022/08/03 07:51:38;;;;;;;10.88;2.90;;;;;;;;;;5007037;28;20380;-74
2022/08/03 07:54:04;;;;;;;9.13;2.90;;;;;;;;;;5007185;28;20133;-72
2022/08/03 07:56:30;;;;;;;11.50;3.08;;;;;;;;;;5006535;28;20100;-73
2022/08/03 07:58:57;;;;;;;10.23;2.70;;;;;;;;;;4995873;28;20050;-73
2022/08/03 08:01:23;;;;;;;10.18;3.03;;;;;;;;;;5007083;28;20419;-73
2022/08/03 08:03:49;;;;;;;17.35;3.28;;;;;;;;;;5007661;28;20049;-73
2022/08/03 08:06:16;;;;;;;18.77;3.30;;;;;;;;;;5007413;28;20054;-72
2022/08/03 08:08:42;;;;;;;14.50;3.38;;;;;;;;;;5008233;28;20050;-72
2022/08/03 08:11:09;;;;;;;19.00;3.28;;;;;;;;;;5012564;28;20050;-71
2022/08/03 08:13:36;;;;;;;15.63;3.20;;;;;;;;;;5009354;28;20046;-75
2022/08/03 08:16:02;;;;;;;9.82;3.20;;;;;;;;;;5008468;28;20061;-75
2022/08/03 08:18:31;;;;;;;19.17;2.97;;;;;;;;;;5010280;28;20064;-78
2022/08/03 08:20:57;;;;;;;11.80;2.88;;;;;;;;;;5007896;28;20052;-74
2022/08/03 08:23:23;;;;;;;15.85;3.40;;;;;;;;;;5007009;28;20484;-78
2022/08/03 08:25:50;;;;;;;16.35;3.35;;;;;;;;;;5009080;28;20096;-75
2022/08/03 08:28:22;;;;;;;18.50;3.00;;;;;;;;;;5019849;28;20125;-77
2022/08/03 08:30:48;;;;;;;9.82;2.70;;;;;;;;;;5008653;28;20081;-74
2022/08/03 08:33:14;;;;;;;10.38;2.92;;;;;;;;;;5007398;28;20362;-77
2022/08/03 08:35:40;;;;;;;11.18;2.72;;;;;;;;;;5011736;28;20065;-75
2022/08/03 08:38:06;;;;;;;8.48;2.33;;;;;;;;;;5012749;28;20120;-77
2022/08/03 08:40:32;;;;;;;15.13;2.85;;;;;;;;;;5012154;28;20139;-76
2022/08/03 08:42:58;;;;;;;15.82;3.17;;;;;;;;;;5011175;28;20049;-73
2022/08/03 08:45:25;;;;;;;10.43;2.90;;;;;;;;;;5003778;28;20038;-77
2022/08/03 08:47:53;;;;;;;14.18;2.47;;;;;;;;;;5000391;28;20434;-74
2022/08/03 08:50:21;;;;;;;9.18;2.17;;;;;;;;;;5007186;28;20038;-75
2022/08/03 08:52:49;;;;;;;16.40;2.67;;;;;;;;;;5009185;28;20076;-77
2022/08/03 08:55:21;;;;;;;10.90;2.38;;;;;;;;;;5009972;28;20412;-78
2022/08/03 08:57:51;;;;;;;11.55;3.10;;;;;;;;;;5012007;28;20507;-75
2022/08/03 09:00:17;;;;;;;13.88;3.00;;;;;;;;;;5013366;28;20041;-74
2022/08/03 09:02:45;;;;;;;13.55;3.03;;;;;;;;;;5008736;28;20045;-76
2022/08/03 09:05:17;;;;;;;11.65;3.08;;;;;;;;;;5006229;28;20052;-74
2022/08/03 09:07:44;;;;;;;9.93;2.70;;;;;;;;;;5007778;28;20042;-73
2022/08/03 09:10:12;;;;;;;6.28;2.15;;;;;;;;;;5006627;28;20056;-75
2022/08/03 09:12:41;;;;;;;7.25;2.50;;;;;;;;;;4994032;28;20046;-74
2022/08/03 09:15:18;;;;;;;8.40;2.47;;;;;;;;;;5006984;28;20046;-74
2022/08/03 09:17:45;;;;;;;11.68;2.42;;;;;;;;;;5009336;28;20050;-73
2022/08/03 09:20:11;;;;;;;8.63;2.40;;;;;;;;;;5005351;28;20165;-75
2022/08/03 09:22:57;;;;;;;5.28;2.40;;;;;;;;;;5007651;28;20794;-78
2022/08/03 09:25:39;;;;;;;7.35;3.00;;;;;;;;;;5007434;28;20053;-74
2022/08/03 09:28:11;;;;;;;6.00;3.22;;;;;;;;;;4999698;28;20056;-73
2022/08/03 09:30:40;;;;;;;9.10;3.80;;;;;;;;;;5011398;28;20095;-76
2022/08/03 09:33:08;;;;;;;9.75;3.63;;;;;;;;;;5011099;28;20053;-76
2022/08/03 09:35:47;;;;;;;10.32;3.15;;;;;;;;;;5013317;28;20038;-74
2022/08/03 09:38:16;;;;;;;9.20;2.70;;;;;;;;;;5011339;28;20731;-74
2022/08/03 09:40:44;;;;;;;6.03;2.40;;;;;;;;;;5011007;28;20491;-75
2022/08/03 09:43:10;;;;;;;6.63;2.50;;;;;;;;;;5011042;28;20051;-76
2022/08/03 09:45:38;;;;;;;7.78;2.60;;;;;;;;;;5011208;28;20112;-73
2022/08/03 09:48:33;;;;;;;4.47;2.42;;;;;;;;;;5010314;28;20070;-75
2022/08/03 09:51:02;;;;;;;4.10;2.25;;;;;;;;;;5011051;28;20037;-75
2022/08/03 09:53:28;;;;;;;6.82;2.10;;;;;;;;;;5010540;28;20098;-76
2022/08/03 09:55:56;;;;;;;8.13;2.40;;;;;;;;;;5003388;28;20491;-75
2022/08/03 09:58:24;;;;;;;6.45;2.00;;;;;;;;;;5003408;28;20050;-76
2022/08/03 10:00:57;;;;;;;10.57;2.10;;;;;;;;;;5002114;28;20050;-74
2022/08/03 10:03:25;;;;;;;8.23;2.35;;;;;;;;;;5003824;28;20191;-75
2022/08/03 10:05:51;;;;;;;6.78;2.30;;;;;;;;;;5003957;28;20045;-74
2022/08/03 10:08:19;;;;;;;8.50;2.53;;;;;;;;;;5002238;28;20125;-76
2022/08/03 10:10:47;;;;;;;5.88;2.20;;;;;;;;;;5004826;28;20049;-77
2022/08/03 10:13:14;;;;;;;5.00;2.25;;;;;;;;;;5005817;28;20066;-77
2022/08/03 10:15:40;;;;;;;5.82;2.00;;;;;;;;;;5003808;28;20045;-77
2022/08/03 10:18:07;;;;;;;6.45;2.33;;;;;;;;;;5001751;28;20058;-75
2022/08/03 10:20:42;;;;;;;6.00;2.05;;;;;;;;;;5003130;28;20512;-78
2022/08/03 10:23:09;;;;;;;8.50;2.20;;;;;;;;;;5000758;28;20048;-75
2022/08/03 10:25:37;;;;;;;8.77;2.08;;;;;;;;;;5004698;28;20069;-74
2022/08/03 10:28:05;;;;;;;11.15;2.67;;;;;;;;;;5004221;28;20037;-77
2022/08/03 10:30:32;;;;;;;8.68;2.58;;;;;;;;;;5002162;28;20042;-74
2022/08/03 10:33:04;;;;;;;7.43;2.30;;;;;;;;;;5004237;28;20093;-77
2022/08/03 10:35:30;;;;;;;5.25;2.50;;;;;;;;;;5002482;28;20502;-74
2022/08/03 10:37:59;;;;;;;7.15;2.63;;;;;;;;;;4999710;28;20054;-77
2022/08/03 10:40:28;;;;;;;6.90;2.85;;;;;;;;;;5001650;28;20052;-76
2022/08/03 10:42:58;;;;;;;8.77;2.92;;;;;;;;;;5002215;28;20574;-76
2022/08/03 10:45:26;;;;;;;7.47;3.20;;;;;;;;;;5001211;28;20057;-75
2022/08/03 10:47:54;;;;;;;7.53;2.55;;;;;;;;;;5001054;28;20398;-75
2022/08/03 10:50:23;;;;;;;6.15;2.63;;;;;;;;;;5000548;28;20156;-73
2022/08/03 10:52:58;;;;;;;7.03;2.40;;;;;;;;;;5002913;28;20137;-76
2022/08/03 10:58:35;;;;;;;5.60;2.30;;;;;;;;;;5002922;28;20046;-75
2022/08/03 11:01:06;;;;;;;6.55;2.90;;;;;;;;;;5002373;28;20050;-75
2022/08/03 11:03:32;;;;;;;6.60;2.60;;;;;;;;;;5002332;28;20129;-74
2022/08/03 11:06:17;;;;;;;7.75;2.70;;;;;;;;;;5003108;28;20054;-73
2022/08/03 11:08:48;;;;;;;5.28;2.63;;;;;;;;;;5005065;28;20054;-75
2022/08/03 11:11:16;;;;;;;11.80;2.92;;;;;;;;;;5004922;28;20046;-77
2022/08/03 11:14:10;;;;;;;6.90;2.97;;;;;;;;;;5004835;28;20062;-76
2022/08/03 11:16:42;;;;;;;10.63;2.60;;;;;;;;;;5002050;28;20061;-75
2022/08/03 11:19:09;;;;;;;5.25;2.50;;;;;;;;;;5001378;28;20091;-76
2022/08/03 11:22:04;;;;;;;8.57;2.80;;;;;;;;;;5000952;28;20049;-74
2022/08/03 11:24:36;;;;;;;6.47;2.42;;;;;;;;;;5006349;28;20097;-76
2022/08/03 11:27:17;;;;;;;7.43;2.63;;;;;;;;;;5002411;28;20045;-75
2022/08/03 11:30:08;;;;;;;8.82;2.53;;;;;;;;;;5000379;28;20038;-74
2022/08/03 11:32:36;;;;;;;8.32;2.70;;;;;;;;;;4998912;28;20038;-74
2022/08/03 11:35:06;;;;;;;8.48;2.67;;;;;;;;;;5006279;28;20046;-75
2022/08/03 11:37:32;;;;;;;9.50;4.07;;;;;;;;;;5003569;28;20049;-79
2022/08/03 11:39:58;;;;;;;9.32;3.17;;;;;;;;;;5003298;28;20065;-77
2022/08/03 11:42:25;;;;;;;8.57;3.00;;;;;;;;;;5004340;28;20401;-77
2022/08/03 11:44:54;;;;;;;6.65;3.10;;;;;;;;;;5004701;28;20046;-76
2022/08/03 11:47:20;;;;;;;9.82;2.88;;;;;;;;;;5003528;28;20076;-75
2022/08/03 11:49:48;;;;;;;10.80;2.92;;;;;;;;;;5002689;28;20173;-76
2022/08/03 11:52:15;;;;;;;8.93;2.80;;;;;;;;;;5001657;28;20096;-75
2022/08/03 11:54:42;;;;;;;10.20;2.60;;;;;;;;;;5000700;28;20137;-76
2022/08/03 11:57:08;;;;;;;9.13;2.80;;;;;;;;;;5003185;28;20050;-76
2022/08/03 11:59:36;;;;;;;14.63;4.65;;;;;;;;;;5005142;28;20042;-75
2022/08/03 12:02:15;;;;;;;9.40;2.80;;;;;;;;;;5003388;28;20057;-77
2022/08/03 12:04:51;;;;;;;14.13;6.80;;;;;;;;;;5008219;28;20145;-75
2022/08/03 12:07:17;;;;;;;7.43;2.58;;;;;;;;;;5010458;28;20038;-77
2022/08/03 12:10:03;;;;;;;9.18;2.80;;;;;;;;;;5009799;28;20049;-76
2022/08/03 12:12:29;;;;;;;6.63;2.80;;;;;;;;;;5008102;28;20046;-77
2022/08/03 12:14:57;;;;;;;5.80;2.53;;;;;;;;;;5009628;28;20057;-76
2022/08/03 12:17:23;;;;;;;8.25;2.45;;;;;;;;;;5011339;28;20049;-75
2022/08/03 12:19:49;;;;;;;6.30;2.03;;;;;;;;;;5009560;28;20050;-72
2022/08/03 12:22:15;;;;;;;7.55;2.20;;;;;;;;;;5010081;28;20085;-72
2022/08/03 12:24:43;;;;;;;4.25;2.08;;;;;;;;;;5020415;28;20522;-75
2022/08/03 12:27:09;;;;;;;10.50;2.15;;;;;;;;;;5012947;28;20050;-75
2022/08/03 12:29:35;;;;;;;3.95;1.77;;;;;;;;;;5008152;28;20100;-75
2022/08/03 12:32:01;;;;;;;6.20;1.90;;;;;;;;;;5007228;28;20091;-73
2022/08/03 12:34:49;;;;;;;6.90;2.00;;;;;;;;;;5007621;28;20080;-76
2022/08/03 12:37:19;;;;;;;4.38;1.92;;;;;;;;;;5007697;28;20196;-76
2022/08/03 12:39:53;;;;;;;5.97;1.90;;;;;;;;;;5011052;28;20092;-75
2022/08/03 12:42:19;;;;;;;3.30;1.58;;;;;;;;;;5011454;28;20073;-77
2022/08/03 12:44:47;;;;;;;2.60;1.63;;;;;;;;;;5009875;28;20049;-77
2022/08/03 12:47:14;;;;;;;4.30;1.85;;;;;;;;;;5010284;28;20103;-78
2022/08/03 12:49:49;;;;;;;7.68;1.95;;;;;;;;;;5008065;28;20084;-78
2022/08/03 12:52:16;;;;;;;3.80;1.80;;;;;;;;;;5005728;28;20050;-76
2022/08/03 12:54:52;;;;;;;4.82;1.73;;;;;;;;;;5007817;28;20050;-75
2022/08/03 12:57:18;;;;;;;2.92;1.65;;;;;;;;;;5007788;28;20049;-76
2022/08/03 12:59:47;;;;;;;3.15;1.80;;;;;;;;;;5012688;28;20050;-76
2022/08/03 13:02:16;;;;;;;6.22;1.75;;;;;;;;;;5013691;28;20053;-77
2022/08/03 13:04:44;;;;;;;5.20;1.65;;;;;;;;;;5014711;28;20046;-75
2022/08/03 13:07:11;;;;;;;7.18;1.90;;;;;;;;;;5015116;28;20113;-77
2022/08/03 13:09:42;;;;;;;5.10;1.85;;;;;;;;;;5014384;28;20061;-75
2022/08/03 13:12:13;;;;;;;7.05;1.90;;;;;;;;;;5014551;28;20050;-75
2022/08/03 13:14:45;;;;;;;6.97;1.83;;;;;;;;;;5010773;28;20054;-75
2022/08/03 13:17:11;;;;;;;7.50;2.00;;;;;;;;;;5006209;28;20060;-76
2022/08/03 13:19:39;;;;;;;4.15;1.60;;;;;;;;;;5011427;28;20168;-76
2022/08/03 13:22:22;;;;;;;8.52;1.73;;;;;;;;;;5012221;28;20054;-75
2022/08/03 13:24:50;;;;;;;5.50;1.80;;;;;;;;;;5012551;28;20788;-76
2022/08/03 13:27:17;;;;;;;6.85;1.90;;;;;;;;;;5011896;28;20060;-76
2022/08/03 13:29:43;;;;;;;10.15;2.13;;;;;;;;;;5014679;28;20123;-75
2022/08/03 13:32:09;;;;;;;9.98;1.67;;;;;;;;;;5016949;28;20635;-76
2022/08/03 13:34:36;;;;;;;5.93;1.90;;;;;;;;;;5014597;28;20046;-78
2022/08/03 13:37:05;;;;;;;10.25;1.73;;;;;;;;;;5012453;28;20061;-75
2022/08/03 13:39:31;;;;;;;5.25;1.65;;;;;;;;;;5013575;28;20049;-77
2022/08/03 13:41:57;;;;;;;5.93;1.85;;;;;;;;;;5012627;28;20053;-79
2022/08/03 13:44:23;;;;;;;7.97;1.90;;;;;;;;;;5011820;28;20050;-74
2022/08/03 13:46:49;;;;;;;5.35;2.13;;;;;;;;;;5011588;28;20467;-77
2022/08/03 13:49:15;;;;;;;7.10;2.00;;;;;;;;;;5016461;28;20064;-75
2022/08/03 13:51:41;;;;;;;6.07;1.75;;;;;;;;;;5016417;28;20488;-76
2022/08/03 13:54:07;;;;;;;8.93;1.90;;;;;;;;;;5012122;28;20042;-76
2022/08/03 13:56:33;;;;;;;6.18;1.83;;;;;;;;;;5012369;28;20250;-76
2022/08/03 13:58:59;;;;;;;4.00;1.42;;;;;;;;;;5011796;28;20125;-77
2022/08/03 14:01:25;;;;;;;5.47;1.60;;;;;;;;;;5013379;28;20404;-76
2022/08/03 14:03:53;;;;;;;6.47;1.80;;;;;;;;;;5014100;28;20050;-75
2022/08/03 14:06:20;;;;;;;7.22;1.80;;;;;;;;;;5004811;28;20214;-77
2022/08/03 14:08:47;;;;;;;9.13;1.77;;;;;;;;;;5015451;28;20396;-78
2022/08/03 14:11:13;;;;;;;6.13;1.80;;;;;;;;;;5015850;28;20058;-77
2022/08/03 14:13:39;;;;;;;6.70;1.83;;;;;;;;;;5014909;28;20061;-76
2022/08/03 14:16:06;;;;;;;8.93;1.95;;;;;;;;;;5006517;28;20050;-74
2022/08/03 14:18:32;;;;;;;8.23;2.00;;;;;;;;;;5017728;28;20046;-77
2022/08/03 14:20:58;;;;;;;9.70;2.22;;;;;;;;;;5015486;28;20053;-77
2022/08/03 14:23:24;;;;;;;11.95;2.40;;;;;;;;;;5019860;28;20058;-77
2022/08/03 14:25:51;;;;;;;7.65;2.00;;;;;;;;;;5017633;28;20054;-78
2022/08/03 14:28:24;;;;;;;7.75;2.30;;;;;;;;;;5018054;28;20041;-76
2022/08/03 14:30:51;;;;;;;7.95;2.05;;;;;;;;;;5016352;28;20062;-78
2022/08/03 14:33:17;;;;;;;8.73;2.17;;;;;;;;;;5019035;28;20100;-76
2022/08/03 14:35:42;;;;;;;8.07;3.22;;;;;;;;;;5015689;28;20050;-76
2022/08/03 14:38:08;;;;;;;10.18;2.25;;;;;;;;;;5010624;28;20045;-76
2022/08/03 14:40:34;;;;;;;12.23;2.10;;;;;;;;;;5009251;28;20064;-76
2022/08/03 14:43:01;;;;;;;9.80;2.28;;;;;;;;;;5009579;28;20041;-76
2022/08/03 14:45:27;;;;;;;8.60;1.95;;;;;;;;;;5011160;28;20046;-74
2022/08/03 14:47:53;;;;;;;8.75;2.00;;;;;;;;;;5010457;28;20495;-75
2022/08/03 14:50:20;;;;;;;11.57;2.42;;;;;;;;;;5009017;28;20056;-78
2022/08/03 14:52:45;;;;;;;12.13;2.20;;;;;;;;;;5009077;28;20064;-75
2022/08/03 14:55:12;;;;;;;9.25;2.20;;;;;;;;;;4997070;28;20500;-78